createdAt,value
2023-04-17T00:01:09.105Z,10.69
2023-04-17T00:03:35.710Z,10.77
2023-04-17T00:06:02.523Z,10.75
2023-04-17T00:08:29.197Z,10.57
2023-04-17T00:11:06.400Z,10.73
2023-04-17T00:13:34.003Z,10.59
2023-04-17T00:16:00.654Z,10.58
2023-04-17T00:18:27.108Z,10.62
2023-04-17T00:20:53.632Z,10.59
2023-04-17T00:23:20.256Z,10.62
2023-04-17T00:25:46.712Z,10.56
2023-04-17T00:28:13.147Z,10.46
2023-04-17T00:30:39.582Z,10.59
2023-04-17T00:33:06.080Z,10.57
2023-04-17T00:35:32.509Z,10.57
2023-04-17T00:37:58.973Z,10.46
2023-04-17T00:40:25.436Z,10.49
2023-04-17T00:42:56.025Z,10.52
2023-04-17T00:45:22.477Z,10.50
2023-04-17T00:47:49.966Z,10.45
2023-04-17T00:50:16.658Z,10.43
2023-04-17T00:52:44.992Z,10.41
2023-04-17T00:55:12.508Z,10.35
2023-04-17T00:57:39.376Z,10.28
2023-04-17T01:00:08.468Z,10.01
2023-04-17T01:02:35.287Z,10.31
2023-04-17T01:05:02.604Z,9.93
2023-04-17T01:07:30.807Z,10.16
2023-04-17T01:09:57.330Z,10.03
2023-04-17T01:12:25.231Z,10.08
2023-04-17T01:14:55.797Z,10.14
2023-04-17T01:17:23.268Z,10.13
2023-04-17T01:19:50.008Z,9.99
2023-04-17T01:22:16.638Z,10.04
2023-04-17T01:24:43.626Z,10.07
2023-04-17T01:27:13.563Z,9.94
2023-04-17T01:29:41.339Z,9.90
2023-04-17T01:32:08.327Z,10.00
2023-04-17T01:34:37.208Z,9.93
2023-04-17T01:37:03.931Z,9.95
2023-04-17T01:39:30.619Z,9.94
2023-04-17T01:41:57.332Z,9.93
2023-04-17T01:44:23.880Z,9.90
2023-04-17T01:46:51.176Z,9.75
2023-04-17T01:49:17.649Z,9.78
2023-04-17T01:51:44.210Z,9.80
2023-04-17T01:54:10.824Z,9.77
2023-04-17T01:56:37.309Z,9.74
2023-04-17T01:59:03.775Z,9.68
2023-04-17T02:01:31.180Z,9.66
2023-04-17T02:03:57.983Z,9.71
2023-04-17T02:06:25.505Z,9.69
2023-04-17T02:08:51.911Z,9.43
2023-04-17T02:11:18.488Z,9.65
2023-04-17T02:13:45.085Z,9.56
2023-04-17T02:16:12.627Z,9.60
2023-04-17T02:18:40.684Z,9.61
2023-04-17T02:21:07.270Z,9.56
2023-04-17T02:23:33.775Z,9.58
2023-04-17T02:26:00.432Z,9.55
2023-04-17T02:28:27.371Z,9.49
2023-04-17T02:30:53.955Z,9.50
2023-04-17T02:33:21.351Z,9.43
2023-04-17T02:35:47.929Z,9.46
2023-04-17T02:38:14.571Z,9.43
2023-04-17T02:40:41.192Z,8.85
2023-04-17T02:43:07.658Z,9.39
2023-04-17T02:45:34.101Z,9.36
2023-04-17T02:48:01.152Z,9.32
2023-04-17T02:50:27.668Z,9.18
2023-04-17T02:52:54.660Z,9.28
2023-04-17T02:55:21.268Z,9.26
2023-04-17T02:57:47.767Z,9.23
2023-04-17T03:00:15.075Z,9.18
2023-04-17T03:02:42.138Z,9.17
2023-04-17T03:05:09.170Z,9.13
2023-04-17T03:07:35.757Z,9.14
2023-04-17T03:10:03.293Z,9.10
2023-04-17T03:12:29.783Z,9.11
2023-04-17T03:14:56.276Z,9.07
2023-04-17T03:17:22.833Z,9.09
2023-04-17T03:19:49.335Z,9.09
2023-04-17T03:22:16.046Z,8.99
2023-04-17T03:24:42.571Z,9.08
2023-04-17T03:27:09.111Z,8.97
2023-04-17T03:29:35.651Z,8.99
2023-04-17T03:32:02.214Z,9.00
2023-04-17T03:34:29.618Z,8.99
2023-04-17T03:36:56.026Z,8.80
2023-04-17T03:39:22.474Z,9.05
2023-04-17T03:41:48.949Z,9.03
2023-04-17T03:44:17.212Z,9.00
2023-04-17T03:46:43.641Z,9.06
2023-04-17T03:49:10.452Z,9.05
2023-04-17T03:51:37.154Z,8.94
2023-04-17T03:54:03.934Z,9.05
2023-04-17T03:56:30.573Z,9.10
2023-04-17T03:58:57.096Z,9.11
2023-04-17T04:01:23.608Z,8.92
2023-04-17T04:03:50.306Z,9.09
2023-04-17T04:06:20.156Z,9.16
2023-04-17T04:08:46.637Z,9.17
2023-04-17T04:11:13.873Z,9.20
2023-04-17T04:13:40.650Z,9.21
2023-04-17T04:16:07.772Z,9.03
2023-04-17T04:18:35.280Z,9.09
2023-04-17T04:21:02.003Z,9.09
2023-04-17T04:23:30.453Z,9.22
2023-04-17T04:25:57.895Z,9.26
2023-04-17T04:28:24.502Z,9.28
2023-04-17T04:30:53.612Z,9.10
2023-04-17T04:33:20.900Z,9.28
2023-04-17T04:35:48.471Z,9.26
2023-04-17T04:38:17.171Z,9.26
2023-04-17T04:40:50.058Z,9.24
2023-04-17T04:43:16.746Z,9.24
2023-04-17T04:45:43.349Z,9.11
2023-04-17T04:48:09.848Z,9.30
2023-04-17T04:50:36.422Z,9.15
2023-04-17T04:53:02.869Z,9.31
2023-04-17T04:55:30.820Z,9.20
2023-04-17T04:57:57.556Z,9.29
2023-04-17T05:00:24.819Z,9.33
2023-04-17T05:02:51.379Z,9.34
2023-04-17T05:05:17.910Z,9.35
2023-04-17T05:07:44.346Z,9.28
2023-04-17T05:10:10.841Z,9.38
2023-04-17T05:12:37.304Z,9.39
2023-04-17T05:15:04.025Z,9.30
2023-04-17T05:17:30.770Z,9.40
2023-04-17T05:19:57.296Z,9.46
2023-04-17T05:22:23.708Z,9.39
2023-04-17T05:24:50.185Z,9.36
2023-04-17T05:27:16.591Z,9.56
2023-04-17T05:29:43.163Z,9.45
2023-04-17T05:32:09.709Z,9.61
2023-04-17T05:34:36.325Z,9.56
2023-04-17T05:37:03.387Z,9.69
2023-04-17T05:39:29.915Z,9.79
2023-04-17T05:41:56.474Z,9.84
2023-04-17T05:44:22.951Z,9.77
2023-04-17T05:46:49.385Z,9.94
2023-04-17T05:49:16.001Z,9.84
2023-04-17T05:51:42.459Z,9.94
2023-04-17T05:54:08.930Z,10.12
2023-04-17T05:56:35.563Z,10.17
2023-04-17T05:59:02.014Z,10.23
2023-04-17T06:01:29.939Z,10.31
2023-04-17T06:03:57.195Z,10.31
2023-04-17T06:06:23.918Z,10.44
2023-04-17T06:08:52.465Z,10.52
2023-04-17T06:11:19.054Z,10.56
2023-04-17T06:13:46.028Z,10.62
2023-04-17T06:16:12.556Z,10.71
2023-04-17T06:18:40.049Z,10.78
2023-04-17T06:21:09.979Z,10.83
2023-04-17T06:23:36.393Z,10.93
2023-04-17T06:26:03.004Z,11.01
2023-04-17T06:28:29.459Z,11.09
2023-04-17T06:30:55.955Z,11.12
2023-04-17T06:33:24.523Z,11.28
2023-04-17T06:35:52.529Z,11.24
2023-04-17T06:38:18.960Z,11.31
2023-04-17T06:40:46.592Z,11.56
2023-04-17T06:43:15.371Z,11.72
2023-04-17T06:45:42.941Z,11.77
2023-04-17T06:48:09.459Z,11.61
2023-04-17T06:50:36.368Z,12.01
2023-04-17T06:53:02.836Z,12.11
2023-04-17T06:55:29.618Z,12.20
2023-04-17T06:57:56.060Z,12.41
2023-04-17T07:00:22.883Z,12.56
2023-04-17T07:02:49.412Z,12.75
2023-04-17T07:05:16.641Z,12.93
2023-04-17T07:07:43.107Z,12.93
2023-04-17T07:10:09.719Z,13.13
2023-04-17T07:12:36.237Z,13.27
2023-04-17T07:15:02.904Z,13.32
2023-04-17T07:17:29.374Z,13.34
2023-04-17T07:19:56.310Z,13.31
2023-04-17T07:22:23.377Z,13.31
2023-04-17T07:24:50.776Z,13.21
2023-04-17T07:27:17.416Z,13.28
2023-04-17T07:29:46.959Z,13.30
2023-04-17T07:32:14.736Z,13.29
2023-04-17T07:34:41.929Z,13.33
2023-04-17T07:37:08.440Z,13.37
2023-04-17T07:39:35.220Z,13.36
2023-04-17T07:42:06.291Z,13.48
2023-04-17T07:44:32.915Z,13.60
2023-04-17T07:46:59.559Z,13.60
2023-04-17T07:49:26.045Z,13.88
2023-04-17T07:51:52.684Z,14.00
2023-04-17T07:54:19.130Z,13.86
2023-04-17T07:56:49.385Z,14.14
2023-04-17T07:59:16.750Z,14.22
2023-04-17T08:01:43.612Z,14.08
2023-04-17T08:04:10.313Z,14.23
2023-04-17T08:06:36.969Z,14.14
2023-04-17T08:09:04.248Z,14.26
2023-04-17T08:11:30.783Z,14.25
2023-04-17T08:13:57.213Z,14.34
2023-04-17T08:16:23.752Z,14.32
2023-04-17T08:18:50.374Z,14.17
2023-04-17T08:21:16.791Z,14.48
2023-04-17T08:23:43.248Z,14.52
2023-04-17T08:26:09.779Z,14.63
2023-04-17T08:28:36.219Z,14.55
2023-04-17T08:31:03.124Z,14.71
2023-04-17T08:33:29.603Z,14.83
2023-04-17T08:35:56.137Z,14.89
2023-04-17T08:38:22.773Z,14.92
2023-04-17T08:40:53.516Z,14.98
2023-04-17T08:43:21.499Z,14.99
2023-04-17T08:45:53.662Z,15.04
2023-04-17T08:48:23.792Z,15.12
2023-04-17T08:50:52.439Z,15.15
2023-04-17T08:53:20.556Z,15.11
2023-04-17T08:55:47.945Z,15.20
2023-04-17T08:58:15.178Z,15.24
2023-04-17T09:00:45.409Z,15.31
2023-04-17T09:03:12.866Z,15.62
2023-04-17T09:05:45.972Z,15.66
2023-04-17T09:08:20.571Z,15.78
2023-04-17T09:10:49.078Z,15.98
2023-04-17T09:13:17.978Z,16.12
2023-04-17T09:15:46.444Z,16.45
2023-04-17T09:18:26.116Z,16.65
2023-04-17T09:20:53.232Z,16.83
2023-04-17T09:23:20.666Z,16.97
2023-04-17T09:26:04.840Z,17.08
2023-04-17T09:28:35.337Z,17.31
2023-04-17T09:31:07.619Z,17.45
2023-04-17T09:33:34.193Z,17.66
2023-04-17T09:36:22.183Z,18.00
2023-04-17T09:38:49.917Z,18.25
2023-04-17T09:41:28.783Z,18.68
2023-04-17T09:44:01.753Z,18.88
2023-04-17T09:46:38.495Z,18.94
2023-04-17T09:49:22.089Z,18.59
2023-04-17T09:51:49.916Z,18.85
2023-04-17T09:54:17.440Z,18.68
2023-04-17T09:56:44.012Z,18.57
2023-04-17T09:59:10.995Z,18.46
2023-04-17T10:01:38.110Z,18.39
2023-04-17T10:04:05.609Z,18.37
2023-04-17T10:06:33.481Z,18.16
2023-04-17T10:09:00.507Z,18.19
2023-04-17T10:11:44.962Z,18.20
2023-04-17T10:14:25.909Z,18.13
2023-04-17T10:16:53.718Z,18.00
2023-04-17T10:19:34.083Z,18.43
2023-04-17T10:22:16.173Z,18.56
2023-04-17T10:24:43.090Z,18.55
2023-04-17T10:27:24.646Z,18.55
2023-04-17T10:29:54.895Z,18.44
2023-04-17T10:32:24.201Z,18.23
2023-04-17T10:34:51.892Z,18.33
2023-04-17T10:37:18.995Z,18.29
2023-04-17T10:40:02.122Z,18.39
2023-04-17T10:42:30.121Z,18.42
2023-04-17T10:45:01.743Z,18.66
2023-04-17T10:47:33.624Z,18.95
2023-04-17T10:50:03.360Z,19.26
2023-04-17T10:52:32.929Z,19.59
2023-04-17T10:55:17.116Z,19.75
2023-04-17T10:57:59.200Z,19.77
2023-04-17T11:00:52.509Z,19.82
2023-04-17T11:03:23.241Z,19.67
2023-04-17T11:05:49.970Z,19.78
2023-04-17T11:08:16.394Z,19.90
2023-04-17T11:10:43.033Z,20.12
2023-04-17T11:13:10.716Z,20.42
2023-04-17T11:15:37.314Z,20.76
2023-04-17T11:18:04.150Z,20.89
2023-04-17T11:20:32.639Z,21.33
2023-04-17T11:23:04.204Z,21.66
2023-04-17T11:25:33.740Z,21.84
2023-04-17T11:28:05.952Z,21.88
2023-04-17T11:30:40.491Z,21.81
2023-04-17T11:33:08.367Z,21.67
2023-04-17T11:35:36.800Z,21.67
2023-04-17T11:38:17.813Z,21.36
2023-04-17T11:40:45.763Z,21.44
2023-04-17T11:43:13.752Z,21.27
2023-04-17T11:45:43.114Z,20.97
2023-04-17T11:48:11.872Z,21.00
2023-04-17T11:50:40.244Z,20.90
2023-04-17T11:53:07.285Z,20.54
2023-04-17T11:55:35.119Z,20.55
2023-04-17T11:58:06.555Z,20.39
2023-04-17T12:00:33.968Z,20.20
2023-04-17T12:03:02.466Z,20.11
2023-04-17T12:05:31.003Z,20.32
2023-04-17T12:08:05.869Z,20.42
2023-04-17T12:10:43.714Z,20.46
2023-04-17T12:13:11.388Z,20.43
2023-04-17T12:15:40.928Z,20.58
2023-04-17T12:18:08.872Z,20.71
2023-04-17T12:20:36.493Z,20.73
2023-04-17T12:23:04.574Z,20.56
2023-04-17T12:25:33.130Z,20.63
2023-04-17T12:28:00.882Z,20.68
2023-04-17T12:30:27.919Z,20.67
2023-04-17T12:32:55.352Z,20.64
2023-04-17T12:35:23.113Z,20.71
2023-04-17T12:37:51.473Z,20.66
2023-04-17T12:40:19.490Z,20.59
2023-04-17T12:42:49.504Z,20.40
2023-04-17T12:45:17.220Z,20.75
2023-04-17T12:47:44.420Z,20.69
2023-04-17T12:50:12.054Z,20.68
2023-04-17T12:52:40.910Z,20.65
2023-04-17T12:55:08.672Z,20.46
2023-04-17T12:57:36.585Z,20.14
2023-04-17T13:00:09.168Z,19.96
2023-04-17T13:02:36.100Z,20.12
2023-04-17T13:05:02.934Z,20.13
2023-04-17T13:07:29.794Z,19.94
2023-04-17T13:09:56.878Z,19.70
2023-04-17T13:12:23.324Z,20.03
2023-04-17T13:14:49.923Z,20.14
2023-04-17T13:17:17.382Z,20.21
2023-04-17T13:19:44.466Z,20.20
2023-04-17T13:22:11.012Z,20.16
2023-04-17T13:24:37.797Z,20.35
2023-04-17T13:27:04.597Z,20.42
2023-04-17T13:29:31.320Z,20.43
2023-04-17T13:31:57.737Z,20.28
2023-04-17T13:34:24.203Z,20.35
2023-04-17T13:36:50.697Z,20.29
2023-04-17T13:39:17.236Z,20.29
2023-04-17T13:41:43.756Z,20.15
2023-04-17T13:44:10.382Z,20.13
2023-04-17T13:46:36.881Z,20.16
2023-04-17T13:49:03.899Z,19.91
2023-04-17T13:51:31.928Z,20.02
2023-04-17T13:54:01.657Z,19.80
2023-04-17T13:56:28.769Z,20.11
2023-04-17T13:58:55.828Z,19.94
2023-04-17T14:01:22.370Z,20.00
2023-04-17T14:03:49.046Z,19.75
2023-04-17T14:06:17.779Z,19.84
2023-04-17T14:08:45.632Z,19.69
2023-04-17T14:11:12.903Z,19.73
2023-04-17T14:13:39.416Z,19.79
2023-04-17T14:16:06.390Z,19.80
2023-04-17T14:18:32.902Z,19.86
2023-04-17T14:20:59.331Z,19.84
2023-04-17T14:23:25.821Z,19.87
2023-04-17T14:25:52.324Z,19.88
2023-04-17T14:28:19.010Z,19.87
2023-04-17T14:30:45.698Z,19.89
2023-04-17T14:33:12.135Z,19.91
2023-04-17T14:35:40.121Z,19.96
2023-04-17T14:38:07.029Z,19.89
2023-04-17T14:40:33.878Z,20.03
2023-04-17T14:43:00.341Z,19.93
2023-04-17T14:45:26.834Z,19.33
2023-04-17T14:47:53.263Z,19.64
2023-04-17T14:50:20.301Z,19.41
2023-04-17T14:52:46.810Z,19.02
2023-04-17T14:55:13.506Z,18.89
2023-04-17T14:57:40.113Z,18.93
2023-04-17T15:00:08.309Z,18.68
2023-04-17T15:02:38.854Z,18.60
2023-04-17T15:05:06.649Z,18.44
2023-04-17T15:07:33.139Z,18.23
2023-04-17T15:09:59.779Z,18.21
2023-04-17T15:12:26.438Z,18.49
2023-04-17T15:14:53.112Z,18.39
2023-04-17T15:17:19.878Z,18.47
2023-04-17T15:19:46.426Z,18.42
2023-04-17T15:22:12.964Z,18.71
2023-04-17T15:24:39.425Z,18.71
2023-04-17T15:27:06.234Z,18.65
2023-04-17T15:29:32.776Z,18.74
2023-04-17T15:32:00.717Z,18.81
2023-04-17T15:34:27.207Z,18.79
2023-04-17T15:36:53.710Z,18.92
2023-04-17T15:39:20.195Z,18.81
2023-04-17T15:41:46.772Z,18.69
2023-04-17T15:44:13.191Z,18.61
2023-04-17T15:46:39.727Z,18.46
2023-04-17T15:49:09.169Z,18.39
2023-04-17T15:51:35.740Z,18.13
2023-04-17T15:54:02.137Z,18.23
2023-04-17T15:56:31.909Z,18.20
2023-04-17T15:58:58.407Z,18.18
2023-04-17T16:01:25.121Z,18.06
2023-04-17T16:03:52.129Z,17.97
2023-04-17T16:06:20.370Z,17.89
2023-04-17T16:08:47.247Z,17.58
2023-04-17T16:11:14.872Z,17.65
2023-04-17T16:13:41.319Z,17.52
2023-04-17T16:16:08.150Z,17.52
2023-04-17T16:18:34.581Z,17.49
2023-04-17T16:21:01.044Z,17.47
2023-04-17T16:23:27.576Z,17.41
2023-04-17T16:25:55.195Z,17.36
2023-04-17T16:28:21.663Z,17.15
2023-04-17T16:30:49.039Z,17.12
2023-04-17T16:33:15.624Z,16.75
2023-04-17T16:35:42.821Z,16.56
2023-04-17T16:38:12.354Z,16.48
2023-04-17T16:40:39.468Z,16.38
2023-04-17T16:43:06.259Z,16.14
2023-04-17T16:45:32.787Z,15.99
2023-04-17T16:47:59.414Z,16.07
2023-04-17T16:50:25.922Z,15.86
2023-04-17T16:52:52.455Z,15.97
2023-04-17T16:55:19.085Z,15.91
2023-04-17T16:57:47.648Z,15.90
2023-04-17T17:00:14.681Z,15.82
2023-04-17T17:02:41.317Z,15.88
2023-04-17T17:05:08.611Z,15.88
2023-04-17T17:07:35.154Z,15.90
2023-04-17T17:10:01.679Z,15.79
2023-04-17T17:12:28.130Z,15.79
2023-04-17T17:14:54.718Z,15.86
2023-04-17T17:17:21.180Z,15.71
2023-04-17T17:19:47.660Z,15.56
2023-04-17T17:22:14.070Z,15.25
2023-04-17T17:24:40.522Z,15.10
2023-04-17T17:27:06.950Z,14.82
2023-04-17T17:29:33.513Z,14.71
2023-04-17T17:32:02.194Z,14.60
2023-04-17T17:34:28.681Z,14.45
2023-04-17T17:36:55.392Z,14.19
2023-04-17T17:39:22.194Z,14.32
2023-04-17T17:41:49.026Z,14.19
2023-04-17T17:44:15.659Z,14.17
2023-04-17T17:46:42.265Z,14.06
2023-04-17T17:49:08.754Z,14.01
2023-04-17T17:51:35.420Z,13.91
2023-04-17T17:54:01.912Z,13.78
2023-04-17T17:56:28.476Z,13.49
2023-04-17T17:58:55.031Z,13.44
2023-04-17T18:01:24.524Z,13.28
2023-04-17T18:03:51.668Z,13.17
2023-04-17T18:06:18.592Z,12.71
2023-04-17T18:08:45.106Z,12.57
2023-04-17T18:11:13.624Z,12.63
2023-04-17T18:13:40.055Z,12.38
2023-04-17T18:16:06.961Z,12.26
2023-04-17T18:18:33.448Z,12.10
2023-04-17T18:20:59.871Z,11.93
2023-04-17T18:23:26.275Z,11.75
2023-04-17T18:25:59.683Z,11.56
2023-04-17T18:28:26.613Z,11.36
2023-04-17T18:30:53.308Z,11.33
2023-04-17T18:33:20.360Z,11.16
2023-04-17T18:35:46.982Z,11.10
2023-04-17T18:38:13.467Z,10.60
2023-04-17T18:40:39.897Z,10.88
2023-04-17T18:43:06.590Z,10.80
2023-04-17T18:45:33.109Z,10.70
2023-04-17T18:47:59.598Z,10.67
2023-04-17T18:50:26.971Z,10.58
2023-04-17T18:52:53.456Z,10.50
2023-04-17T18:55:20.148Z,10.27
2023-04-17T18:57:46.618Z,10.39
2023-04-17T19:00:13.405Z,10.29
2023-04-17T19:02:40.647Z,10.18
2023-04-17T19:05:07.787Z,9.92
2023-04-17T19:07:34.591Z,10.12
2023-04-17T19:10:01.171Z,10.00
2023-04-17T19:12:27.711Z,9.98
2023-04-17T19:14:57.031Z,9.83
2023-04-17T19:17:25.322Z,9.88
2023-04-17T19:19:51.847Z,9.79
2023-04-17T19:22:18.541Z,9.60
2023-04-17T19:24:50.236Z,9.69
2023-04-17T19:27:17.008Z,9.56
2023-04-17T19:29:43.575Z,9.50
2023-04-17T19:32:10.703Z,9.48
2023-04-17T19:34:37.161Z,9.41
2023-04-17T19:37:04.043Z,9.35
2023-04-17T19:39:31.003Z,8.97
2023-04-17T19:41:57.953Z,9.17
2023-04-17T19:44:25.951Z,9.17
2023-04-17T19:46:53.923Z,9.11
2023-04-17T19:49:20.335Z,9.07
2023-04-17T19:51:46.885Z,8.94
2023-04-17T19:54:13.418Z,8.97
2023-04-17T19:56:39.940Z,8.73
2023-04-17T19:59:06.637Z,8.75
2023-04-17T20:01:33.377Z,8.62
2023-04-17T20:04:00.188Z,8.72
2023-04-17T20:06:26.973Z,8.70
2023-04-17T20:08:53.780Z,8.68
2023-04-17T20:11:20.449Z,8.54
2023-04-17T20:13:46.873Z,8.46
2023-04-17T20:16:13.374Z,8.65
2023-04-17T20:18:41.652Z,8.67
2023-04-17T20:21:08.072Z,8.69
2023-04-17T20:23:34.543Z,8.72
2023-04-17T20:26:01.066Z,8.74
2023-04-17T20:28:28.985Z,8.84
2023-04-17T20:30:55.747Z,8.80
2023-04-17T20:33:22.591Z,8.77
2023-04-17T20:35:49.312Z,8.93
2023-04-17T20:38:15.809Z,8.95
2023-04-17T20:40:42.426Z,8.86
2023-04-17T20:43:08.902Z,8.95
2023-04-17T20:45:35.768Z,8.94
2023-04-17T20:48:02.288Z,8.94
2023-04-17T20:50:28.751Z,8.95
2023-04-17T20:52:55.209Z,8.96
2023-04-17T20:55:21.850Z,8.95
2023-04-17T20:57:48.373Z,8.64
2023-04-17T21:00:15.910Z,8.93
2023-04-17T21:02:43.475Z,8.94
2023-04-17T21:05:10.149Z,8.96
2023-04-17T21:07:37.854Z,8.92
2023-04-17T21:10:05.159Z,8.89
2023-04-17T21:12:33.089Z,8.98
2023-04-17T21:14:59.714Z,8.89
2023-04-17T21:17:26.316Z,8.97
2023-04-17T21:19:55.630Z,9.00
2023-04-17T21:22:22.115Z,9.01
2023-04-17T21:24:48.588Z,8.79
2023-04-17T21:27:15.496Z,8.96
2023-04-17T21:29:42.081Z,8.97
2023-04-17T21:32:08.537Z,8.84
2023-04-17T21:34:35.249Z,8.99
2023-04-17T21:37:03.523Z,8.89
2023-04-17T21:39:32.834Z,8.98
2023-04-17T21:42:00.022Z,8.98
2023-04-17T21:44:26.528Z,8.86
2023-04-17T21:46:53.168Z,8.91
2023-04-17T21:49:20.708Z,8.63
2023-04-17T21:51:47.140Z,8.89
2023-04-17T21:54:13.891Z,8.69
2023-04-17T21:56:40.612Z,8.96
2023-04-17T21:59:07.117Z,8.97
2023-04-17T22:01:33.694Z,8.90
2023-04-17T22:04:00.356Z,8.90
2023-04-17T22:06:27.019Z,8.62
2023-04-17T22:08:53.465Z,8.99
2023-04-17T22:11:20.423Z,8.91
2023-04-17T22:13:47.161Z,8.99
2023-04-17T22:16:13.658Z,8.95
2023-04-17T22:18:40.216Z,8.99
2023-04-17T22:21:07.013Z,9.01
2023-04-17T22:23:33.545Z,8.96
2023-04-17T22:26:00.074Z,8.78
2023-04-17T22:28:30.125Z,8.98
2023-04-17T22:30:57.681Z,9.02
2023-04-17T22:33:24.440Z,8.88
2023-04-17T22:35:50.845Z,8.98
2023-04-17T22:38:18.567Z,8.90
2023-04-17T22:40:45.053Z,8.96
2023-04-17T22:43:11.476Z,8.80
2023-04-17T22:45:37.972Z,8.66
2023-04-17T22:48:04.596Z,8.90
2023-04-17T22:50:32.418Z,8.91
2023-04-17T22:52:58.861Z,8.89
2023-04-17T22:55:25.416Z,8.88
2023-04-17T22:57:52.436Z,8.84
2023-04-17T23:00:20.220Z,8.85
2023-04-17T23:02:47.365Z,8.81
2023-04-17T23:05:14.127Z,8.49
2023-04-17T23:07:41.085Z,8.72
2023-04-17T23:10:07.893Z,8.80
2023-04-17T23:12:34.441Z,8.82
2023-04-17T23:15:01.193Z,8.67
2023-04-17T23:17:28.179Z,8.81
2023-04-17T23:19:54.655Z,8.66
2023-04-17T23:22:21.207Z,8.63
2023-04-17T23:24:47.637Z,8.79
2023-04-17T23:27:14.038Z,8.79
2023-04-17T23:29:40.403Z,8.69
2023-04-17T23:32:07.734Z,8.75
2023-04-17T23:34:34.429Z,8.74
2023-04-17T23:37:02.636Z,8.70
2023-04-17T23:39:29.284Z,8.69
2023-04-17T23:41:55.829Z,8.37
2023-04-17T23:44:22.306Z,8.52
2023-04-17T23:46:48.944Z,8.45
2023-04-17T23:49:15.447Z,8.40
2023-04-17T23:51:41.888Z,8.33
2023-04-17T23:54:08.315Z,8.27
2023-04-17T23:56:35.021Z,8.22
2023-04-17T23:59:01.582Z,7.94
